»·PEaware :: DAL4243 KPHX-KLAS

DAL4243 :: KPHX-KLAS

FLIGHT INFORMATION

Flight Status: Arrived
Operator:
Delta Air Lines
More flights by this operator :: More flights under this callsign
Pilot: Sean Bradley (13609)
Aircraft: CANADAIR CL-600 CRJ-200
(CRJ2)
More flights by this aircraft type
Origin: KPHX Phoenix Sky Harbor Intl
United States
Destination: KLAS McCarran Intl
United States
More flights between these airports :: More routes between these airports
Route: MAYSA5 SISIE IGM TYSSN4
File this flight plan on PilotEdge
Remarks:
Altitude:
(Current/Filed)
26,000ft
Speed:
(Current/Filed)
410kts
Departed: 30-Dec-16 08:48 PM
Arrived: 30-Dec-16 09:40 PM
Distance/Time
Traveled:
221nm/0:52
Distance/Time
To Go:
Arrived

Flight Plot

Page will automatically refresh every two minutes.

Flight plan parsing failed; only flown route is shown


Map Options




Map Legend


Flown Route
Filed Route
Departure Airport
Arrival Airport
Navaid (VOR, NDB)
Fix

Horizontal Profiles

Position Reports

Time Latitude Longitude Heading Altitude Ground
Speed
30-Dec-16 20:14 33.437406 -112.008205 270 1124ft 0kts
30-Dec-16 20:15 33.437406 -112.008205 270 1124ft 0kts
30-Dec-16 20:16 33.437406 -112.008205 270 1124ft 0kts
30-Dec-16 20:17 33.437406 -112.008205 270 1124ft 0kts
30-Dec-16 20:18 33.437406 -112.008205 270 1124ft 0kts
30-Dec-16 20:19 33.437406 -112.008205 270 1124ft 0kts
30-Dec-16 20:20 33.437406 -112.008205 270 1124ft 0kts
30-Dec-16 20:21 33.437406 -112.008205 270 1124ft 0kts
30-Dec-16 20:22 33.437406 -112.008205 270 1124ft 0kts
30-Dec-16 20:23 33.437406 -112.008205 270 1124ft 0kts
30-Dec-16 20:24 33.437406 -112.008205 270 1124ft 0kts
30-Dec-16 20:25 33.437406 -112.008205 270 1124ft 0kts
30-Dec-16 20:26 33.437406 -112.008205 270 1124ft 0kts
30-Dec-16 20:26 33.437406 -112.008205 270 1124ft 0kts
30-Dec-16 20:28 33.437406 -112.008205 270 1124ft 0kts
30-Dec-16 20:28 33.437406 -112.008205 270 1124ft 0kts
30-Dec-16 20:30 33.437406 -112.008205 270 1124ft 0kts
30-Dec-16 20:31 33.437406 -112.008205 270 1124ft 0kts
30-Dec-16 20:31 33.437408 -112.008057 270 1124ft 4kts
30-Dec-16 20:33 33.437280 -112.007335 359 1124ft 0kts
30-Dec-16 20:33 33.437229 -112.007332 359 1124ft 0kts
30-Dec-16 20:34 33.437229 -112.007332 359 1124ft 0kts
30-Dec-16 20:35 33.437229 -112.007332 359 1124ft 0kts
30-Dec-16 20:37 33.437434 -112.007348 354 1124ft 4kts
30-Dec-16 20:37 33.438435 -112.007362 359 1126ft 0kts
30-Dec-16 20:38 33.438435 -112.007362 359 1126ft 0kts
30-Dec-16 20:39 33.438506 -112.007363 359 1126ft 2kts
30-Dec-16 20:40 33.439022 -112.009159 270 1124ft 16kts
30-Dec-16 20:41 33.439029 -112.014223 271 1122ft 16kts
30-Dec-16 20:42 33.439027 -112.018599 270 1117ft 17kts
30-Dec-16 20:43 33.439028 -112.024077 270 1114ft 15kts
30-Dec-16 20:44 33.439049 -112.029146 272 1111ft 13kts
30-Dec-16 20:46 33.439865 -112.029656 359 1111ft 0kts
30-Dec-16 20:47 33.440719 -112.029604 34 1111ft 10kts
30-Dec-16 20:48 33.440696 -112.006579 92 1269ft 175kts
30-Dec-16 20:49 33.438083 -111.941827 92 3412ft 236kts
30-Dec-16 20:50 33.439783 -111.875885 61 6039ft 247kts
30-Dec-16 20:51 33.491016 -111.853216 359 7642ft 264kts
30-Dec-16 20:52 33.553725 -111.847455 2 9712ft 286kts
30-Dec-16 20:53 33.615198 -111.840667 2 11080ft 298kts
30-Dec-16 20:54 33.682735 -111.842602 347 12321ft 305kts
30-Dec-16 20:55 33.743429 -111.871792 304 12901ft 338kts
30-Dec-16 20:56 33.793860 -111.950366 301 14637ft 341kts
30-Dec-16 20:57 33.836878 -112.020518 300 16110ft 346kts
30-Dec-16 20:58 33.876801 -112.085984 300 17154ft 350kts
30-Dec-16 20:59 33.923569 -112.162814 300 18662ft 349kts
30-Dec-16 21:00 33.972611 -112.243592 300 19944ft 356kts
30-Dec-16 21:01 34.027360 -112.332757 307 20996ft 373kts
30-Dec-16 21:02 34.103248 -112.410229 314 21906ft 385kts
30-Dec-16 21:03 34.169466 -112.476936 313 22800ft 390kts
30-Dec-16 21:04 34.238348 -112.546400 313 23888ft 396kts
30-Dec-16 21:05 34.319135 -112.628092 314 25310ft 400kts
30-Dec-16 21:06 34.401671 -112.711748 313 26033ft 413kts
30-Dec-16 21:07 34.483386 -112.794789 313 26038ft 406kts
30-Dec-16 21:08 34.563238 -112.876222 312 26033ft 403kts
30-Dec-16 21:09 34.641183 -112.960841 311 26041ft 404kts
30-Dec-16 21:10 34.719364 -113.046307 311 26039ft 406kts
30-Dec-16 21:11 34.797292 -113.131752 312 26029ft 407kts
30-Dec-16 21:12 34.876972 -113.219282 312 26035ft 408kts
30-Dec-16 21:13 34.958936 -113.309652 312 26009ft 438kts
30-Dec-16 21:14 35.018359 -113.410107 294 26009ft 451kts
30-Dec-16 21:15 35.076975 -113.536268 294 25998ft 452kts
30-Dec-16 21:16 35.132945 -113.657097 294 25991ft 449kts
30-Dec-16 21:17 35.189086 -113.778708 294 25997ft 445kts
30-Dec-16 21:18 35.245787 -113.902049 293 25998ft 446kts
30-Dec-16 21:19 35.316756 -113.987479 319 25262ft 459kts
30-Dec-16 21:20 35.405507 -114.068910 319 24127ft 444kts
30-Dec-16 21:21 35.482165 -114.140263 319 21965ft 414kts
30-Dec-16 21:22 35.549203 -114.202766 319 19403ft 395kts
30-Dec-16 21:23 35.613527 -114.262774 319 16802ft 378kts
30-Dec-16 21:24 35.681475 -114.326417 319 14035ft 357kts
30-Dec-16 21:25 35.758601 -114.390091 335 12025ft 317kts
30-Dec-16 21:26 35.835254 -114.426837 337 12029ft 304kts
30-Dec-16 21:27 35.908534 -114.461143 336 12013ft 259kts
30-Dec-16 21:28 35.963831 -114.487090 336 12033ft 252kts
30-Dec-16 21:29 36.026742 -114.519692 314 11818ft 249kts
30-Dec-16 21:30 36.048403 -114.589748 282 10815ft 242kts
30-Dec-16 21:31 36.065253 -114.664905 282 9193ft 234kts
30-Dec-16 21:32 36.080073 -114.730617 280 7851ft 218kts
30-Dec-16 21:33 36.074477 -114.798901 265 6528ft 200kts
30-Dec-16 21:34 36.073404 -114.860860 269 5973ft 185kts
30-Dec-16 21:35 36.073443 -114.920452 269 5133ft 184kts
30-Dec-16 21:36 36.073540 -114.980280 269 4383ft 184kts
30-Dec-16 21:37 36.073609 -115.037943 269 3494ft 154kts
30-Dec-16 21:38 36.073637 -115.082366 270 2762ft 157kts
30-Dec-16 21:39 36.073664 -115.129076 270 2067ft 145kts
30-Dec-16 21:40 36.074337 -115.149745 296 2115ft 25kts
30-Dec-16 21:41 36.077636 -115.152538 5 2120ft 10kts
30-Dec-16 21:42 36.077829 -115.148314 94 2103ft 19kts
30-Dec-16 21:43 36.077514 -115.143051 92 2086ft 19kts
30-Dec-16 21:44 36.077622 -115.138018 48 2072ft 10kts
30-Dec-16 21:45 36.078273 -115.139242 280 2074ft 9kts
30-Dec-16 21:46 36.080392 -115.138816 346 2067ft 0kts
30-Dec-16 21:47 36.080392 -115.138816 346 2067ft 0kts
30-Dec-16 21:48 36.080392 -115.138816 346 2067ft 0kts

Navigation Log

Ident Type Via Name
Flight plan parsing failed, navigation log unavailable